Terminal Aerodrome Forecast
Issued by NWS

Home | Current Version | Previous Version | Text Only | Print | Product List | Glossary On
Versions: 1 2 3 4 5 6 7 8 9 10 11 12 13 14 15
000
FTUS43 KIND 272123 AAA
TAFHUF
TAF AMD
KHUF 272123Z 2721/2818 10007KT 6SM -SHRA BR VCTS BKN035CB
     FM280100 13005KT 6SM -SHRA BR OVC025
     FM280300 10004KT 5SM -SHRA BR OVC015
     FM280600 VRB03KT P6SM OVC020
     FM280900 35005KT 6SM BR BKN008
     FM281600 01009KT P6SM BKN020=

USA.gov is the U.S. government's official web portal to all federal, state and local government web resources and services.